Spruce Head, Maine
Current Conditions -  °F | °C
As of 2:15 AM on Friday 28 Nov 2014 (Local Time) from KRKD Reporting Station
Few Clouds Few Clouds  
Wind Chill: 17°   Ceiling: Unl
Heat Index: 27°   Visibility: 10mi
Dew Point: 16°   Wind: 9mph
Humidity: 64%   Direction: 40°NE
Pressure: 30.02"   Gusts: NA
Location:  44.01°N, 69.13°W
Report Text: KRKD 280715Z AUTO 04008KT 10SM FEW028 M03/M09 A3002 RMK AO1
Loading
Personal Weather Stations






























Interactive Weather Map New forecast layout! Learn more

10-Day Weather Forecast

Advertisements
Track Severe Weather on mobile